Flight Track Log - Related Links

Times and Time Zones

All times are in EDT time to prevent confusion due to time zone crossing. See the LBQ860 flight status page for this flight to view local times or setup timezone preferences in your user account.

Time Position Orientation Groundspeed Altitude Reporting Facility
EDT Latitude Longitude Course Direction KTS MPH feet Rate Location/Type
Fri 01:16:39 AM 26.1967 -80.2072 282° West 137 158 1,000  Level Miami Center
Fri 01:17:32 AM 26.2253 -80.2333 321° Northwest 158 182 2,400 1,391 Climbing Miami Center
Fri 01:17:48 AM 26.2397 -80.2408 335° Northwest 171 197 2,600 1,360 Climbing Miami Center
Fri 01:18:47 AM 26.2769 -80.2511 346° North 187 215 4,100 1,641 Climbing Miami Center
Fri 01:19:45 AM 26.3267 -80.2758 336° Northwest 182 209 5,800 1,525 Climbing Miami Center
Fri 01:20:45 AM 26.3658 -80.2953 336° Northwest 172 198 7,100 1,500 Climbing Miami Center
Fri 01:21:45 AM 26.4156 -80.3108 344° North 172 198 8,800 1,450 Climbing Miami Center
Fri 01:22:45 AM 26.4589 -80.3283 340° North 172 198 10,000 1,289 Climbing Miami Center
Fri 01:23:46 AM 26.5106 -80.3531 337° Northwest 172 198 11,400 1,250 Climbing Miami Center
Fri 01:24:45 AM 26.5561 -80.3775 334° Northwest 172 198 12,500 1,210 Climbing Miami Center
Fri 01:25:45 AM 26.6078 -80.4000 339° North 183 211 13,800 1,240 Climbing Miami Center
Fri 01:26:46 AM 26.6592 -80.4247 337° Northwest 198 228 15,000 1,200 Climbing Miami Center
Fri 01:27:45 AM 26.7089 -80.4494 336° Northwest 198 228 16,200 1,160 Climbing Miami Center
Fri 01:28:45 AM 26.7606 -80.4722 339° North 198 228 17,300 1,091 Climbing Miami Center
Fri 01:29:46 AM 26.8078 -80.4967 335° Northwest 192 221 18,400 1,100 Climbing Miami Center
Fri 01:30:45 AM 26.8594 -80.5217 337° Northwest 192 221 19,500 1,109 Climbing Miami Center
Fri 01:31:45 AM 26.9153 -80.5467 338° Northwest 197 227 20,600 1,050 Climbing Miami Center
Fri 01:32:45 AM 26.9708 -80.5742 336° Northwest 210 242 21,600 900 Climbing Miami Center
Fri 01:33:45 AM 27.0286 -80.5969 341° North 216 249 22,400 700 Climbing Miami Center
Fri 01:34:45 AM 27.0886 -80.6244 338° Northwest 223 257 23,000 300 Climbing Miami Center
Fri 01:35:45 AM 27.1547 -80.6547 338° Northwest 238 274 23,000 -50 Level Miami Center
Fri 01:36:45 AM 27.2247 -80.6850 339° North 257 296 22,900  Descending Miami Center
Fri 01:37:46 AM 27.2969 -80.7156 339° North 263 303 23,000 50 Climbing Miami Center
Fri 01:38:45 AM 27.3692 -80.7483 338° Northwest 274 315 23,000 -50 Level Miami Center
Fri 01:39:45 AM 27.4497 -80.7861 337° Northwest 274 315 22,900  Descending Miami Center
Fri 01:40:45 AM 27.5261 -80.8167 340° North 280 322 23,000 49 Climbing Miami Center
Fri 01:41:47 AM 27.5983 -80.8497 338° Northwest 280 322 23,000 -50 Level Miami Center
Fri 01:42:45 AM 27.6703 -80.8850 337° Northwest 280 322 22,900 -51 Descending Miami Center
Fri 01:43:45 AM 27.7425 -80.9158 339° North 280 322 22,900 50 Level Miami Center
Fri 01:44:45 AM 27.8208 -80.9514 338° Northwest 285 328 23,000  Climbing Miami Center
Fri 01:45:47 AM 27.8950 -80.9844 339° North 291 335 22,900 347 Descending Miami Center
Fri 01:46:46 AM 27.9692 -81.0178 338° Northwest 291 335 23,700 750 Climbing Miami Center
Fri 01:47:47 AM 28.0350 -81.0486 338° Northwest 281 323 24,400 590 Climbing Miami Center
Fri 01:48:48 AM 28.1008 -81.0814 336° Northwest 269 310 24,900 254 Climbing Miami Center
Fri 01:49:45 AM 28.1625 -81.1097 338° Northwest 264 304 24,900  Level Miami Center
Fri 01:51:46 AM 28.3181 -81.1808 338° Northwest 283 326 24,900  Level Jacksonville Center
Fri 01:52:45 AM 28.3914 -81.2172 336° Northwest 288 331 24,900  Level Jacksonville Center
Fri 01:53:45 AM 28.4669 -81.2514 338° Northwest 288 331 24,900  Level Jacksonville Center
Fri 01:54:46 AM 28.5425 -81.2833 340° North 288 331 24,900  Level Jacksonville Center
Fri 01:55:46 AM 28.6161 -81.3200 336° Northwest 288 331 24,900  Level Jacksonville Center
Fri 01:56:46 AM 28.6936 -81.3542 339° North 294 338 24,900  Level Jacksonville Center
Fri 01:57:45 AM 28.7672 -81.3908 336° Northwest 294 338 24,900  Level Jacksonville Center
Fri 01:58:45 AM 28.8428 -81.4231 340° North 294 338 24,900  Level Jacksonville Center
Fri 01:59:46 AM 28.9161 -81.4597 336° Northwest 294 338 24,900  Level Jacksonville Center
Fri 02:00:45 AM 28.9917 -81.4944 338° Northwest 294 338 24,900  Level Jacksonville Center
Fri 02:01:45 AM 29.0653 -81.5314 336° Northwest 294 338 24,900  Level Jacksonville Center
Fri 02:02:46 AM 29.1406 -81.5636 340° North 294 338 24,900  Level Jacksonville Center
Fri 02:03:46 AM 29.1994 -81.5914 338° Northwest 294 338 24,900  Level Jacksonville Center
Fri 02:04:45 AM 29.2792 -81.6308 337° Northwest 288 331 24,900  Level Jacksonville Center
Fri 02:05:46 AM 29.3586 -81.6583 343° North 288 331 24,900  Level Jacksonville Center
Fri 02:06:46 AM 29.4383 -81.6811 346° North 293 337 24,900  Level Jacksonville Center
Fri 02:07:46 AM 29.5178 -81.7064 345° North 288 331 24,900  Level Jacksonville Center
Fri 02:08:46 AM 29.5953 -81.7269 347° North 282 325 24,900  Level Jacksonville Center
Fri 02:09:46 AM 29.6767 -81.7428 350° North 282 325 24,900  Level Jacksonville Center
Fri 02:10:46 AM 29.7564 -81.7633 347° North 287 330 24,900  Level Jacksonville Center
Fri 02:11:46 AM 29.8378 -81.7817 349° North 292 336 24,900  Level Jacksonville Center
Fri 02:12:46 AM 29.9153 -81.8069 344° North 292 336 24,900  Level Jacksonville Center
Fri 02:13:46 AM 29.9908 -81.8350 342° North 292 336 24,900  Level Jacksonville Center
Fri 02:14:46 AM 30.0642 -81.8678 339° North 286 329 24,900  Level Jacksonville Center
Fri 02:15:46 AM 30.1353 -81.9056 335° Northwest 281 323 24,900  Level Jacksonville Center
Fri 02:16:45 AM 30.2044 -81.9503 331° Northwest 281 323 24,900  Level Jacksonville Center
Fri 02:17:45 AM 30.2781 -81.9881 336° Northwest 281 323 24,900  Level Jacksonville Center
Fri 02:18:46 AM 30.3514 -82.0283 335° Northwest 281 323 24,900  Level Jacksonville Center
Fri 02:19:46 AM 30.4267 -82.0639 338° Northwest 281 323 24,900  Level Jacksonville Center
Fri 02:20:46 AM 30.4958 -82.1042 333° Northwest 281 323 24,900  Level Jacksonville Center
Fri 02:21:46 AM 30.5756 -82.1494 334° Northwest 281 323 24,900  Level Jacksonville Center
Fri 02:22:46 AM 30.6467 -82.1828 338° Northwest 281 323 24,900  Level Jacksonville Center
Fri 02:23:46 AM 30.7178 -82.2233 334° Northwest 281 323 24,900 50 Level Jacksonville Center
Fri 02:24:46 AM 30.7889 -82.2567 338° Northwest 276 318 25,000  Climbing Jacksonville Center
Fri 02:25:46 AM 30.8603 -82.2972 334° Northwest 276 318 24,900 -33 Descending Jacksonville Center
Fri 02:27:46 AM 31.0044 -82.3689 337° Northwest 276 318 24,900  Level Jacksonville Center
Fri 02:28:46 AM 31.0736 -82.4100 333° Northwest 276 318 24,900 50 Level Jacksonville Center
Fri 02:29:46 AM 31.1489 -82.4458 338° Northwest 276 318 25,000  Climbing Jacksonville Center
Fri 02:30:46 AM 31.2222 -82.4869 334° Northwest 281 323 24,900 -33 Descending Jacksonville Center
Fri 02:32:00 AM 31.3029 -82.5328 334° Northwest  Level FlightAware Approximate
Fri 02:32:46 AM 31.3706 -82.5567 334° Northwest 281 323 24,900  Level Jacksonville Center
Fri 02:34:36 AM 31.5047 -82.6311 335° Northwest 292 336 24,900  Level Atlanta Center
Fri 02:35:36 AM 31.5783 -82.6689 336° Northwest 287 330 24,900  Level Atlanta Center
Fri 02:36:36 AM 31.6497 -82.7094 334° Northwest 282 325 24,900  Level Atlanta Center
Fri 02:37:36 AM 31.7211 -82.7472 336° Northwest 277 319 24,900  Level Atlanta Center
Fri 02:38:36 AM 31.7925 -82.7853 336° Northwest 277 319 24,900  Level Atlanta Center
Fri 02:39:36 AM 31.8681 -82.8236 337° Northwest 277 319 24,900  Level Atlanta Center
Fri 02:40:36 AM 31.9392 -82.8592 337° Northwest 277 319 24,900  Level Atlanta Center
Fri 02:41:36 AM 32.0128 -82.9000 335° Northwest 277 319 24,900  Level Atlanta Center
Fri 02:42:36 AM 32.0861 -82.9381 336° Northwest 277 319 24,900  Level Atlanta Center
Fri 02:43:36 AM 32.1594 -82.9767 336° Northwest 277 319 24,900  Level Atlanta Center
Fri 02:44:36 AM 32.2328 -83.0150 336° Northwest 277 319 24,900  Level Atlanta Center
Fri 02:45:36 AM 32.3019 -83.0533 335° Northwest 277 319 24,900  Level Atlanta Center
Fri 02:46:36 AM 32.3775 -83.0944 335° Northwest 277 319 24,900  Level Atlanta Center
Fri 02:47:36 AM 32.4508 -83.1356 335° Northwest 277 319 24,900  Level Atlanta Center
Fri 02:48:36 AM 32.5158 -83.1669 338° Northwest 285 328 24,900  Level Atlanta Center
Fri 02:49:36 AM 32.5911 -83.2081 335° Northwest 285 328 24,900  Level Atlanta Center
Fri 02:50:36 AM 32.6625 -83.2467 336° Northwest 285 328 24,900 -650 Level Atlanta Center
Fri 02:51:36 AM 32.7358 -83.2856 336° Northwest 285 328 23,600 -1,250 Descending Atlanta Center
Fri 02:52:36 AM 32.8092 -83.3269 335° Northwest 280 322 22,400 -1,200 Descending Atlanta Center
Fri 02:53:36 AM 32.8844 -83.3683 335° Northwest 280 322 21,200 -1,300 Descending Atlanta Center
Fri 02:54:36 AM 32.9597 -83.4050 338° Northwest 285 328 19,800 -1,400 Descending Atlanta Center
Fri 02:55:36 AM 33.0414 -83.4514 335° Northwest 285 328 18,400 -1,400 Descending Atlanta Center
Fri 02:56:36 AM 33.1083 -83.4908 334° Northwest 285 328 17,000 -1,450 Descending Atlanta Center
Fri 02:57:36 AM 33.1836 -83.5275 338° Northwest 292 336 15,500 -1,350 Descending Atlanta Center
Fri 02:58:36 AM 33.2589 -83.5717 334° Northwest 297 342 14,300 -1,250 Descending Atlanta Center
Fri 02:59:36 AM 33.3322 -83.6086 337° Northwest 297 342 13,000 -1,553 Descending Atlanta Center
Fri 03:00:01 AM 33.3667 -83.6333 329° Northwest 285 328 12,100 -1,600 Descending Atlanta TRACON
Fri 03:00:36 AM 33.4011 -83.6506 337° Northwest 287 330 11,400 -1,389 Descending Atlanta Center
Fri 03:01:36 AM 33.4661 -83.6878 334° Northwest 266 306 9,900 -1,550 Descending Atlanta Center
Fri 03:02:36 AM 33.5331 -83.7222 337° Northwest 261 300 8,300 -1,550 Descending Atlanta Center
Fri 03:03:36 AM 33.6081 -83.7619 336° Northwest 261 300 6,800 -1,500 Descending Atlanta Center
Fri 03:04:36 AM 33.6731 -83.7992 335° Northwest 261 300 5,300 -1,200 Descending Atlanta Center
Fri 03:05:36 AM 33.7356 -83.8314 337° Northwest 255 293 4,400 -900 Descending Atlanta Center
Fri 03:07:00 AM 33.8309 -83.8785 334° Northwest  Level FlightAware Approximate
Fri 03:14:00 AM 33.9667 -83.9500 320° Northwest  Level FlightAware Approximate
Fri 03:15:00 AM 33.9781 -83.9624 320° Northwest  Level Estimated
Fri 03:16:00 AM 33.9781 -83.9624 320° Northwest  Level Estimated
Fri 03:17:00 AM 33.9781 -83.9624 320° Northwest  Level Estimated
Fri 03:18:00 AM 33.9781 -83.9624 320° Northwest  Level Estimated
Fri 03:19:00 AM 33.9781 -83.9624 320° Northwest  Level Estimated
Fri 03:20:00 AM 33.9781 -83.9624 320° Northwest  Level Estimated
Fri 03:21:00 AM 33.9781 -83.9624 320° Northwest  Level Estimated
Fri 03:22:00 AM 33.9781 -83.9624 320° Northwest  Level Estimated
Fri 03:23:00 AM 33.9781 -83.9624 320° Northwest  Level Estimated
Fri 03:24:00 AM 33.9781 -83.9624 320° Northwest  Level Estimated
Fri 03:25:00 AM 33.9781 -83.9624 320° Northwest  Level Estimated
Fri 03:26:00 AM 33.9781 -83.9624 320° Northwest  Level Estimated

Login

Don't have an account? Register now (free) for customized features, flight alerts, and more!